Time;durP1;ratioP1;P1;durP2;ratioP2;P2;SDS_P1;SDS_P2;PMS_P1;PMS_P2;Temp;Humidity;BMP_temperature;BMP_pressure;BME280_temperature;BME280_humidity;BME280_pressure;Samples;Min_cycle;Max_cycle;Signal;HPM_P1;HPM_P2
2024/01/13 00:01:06;;;;;;;1.15;1.05;;;3.00;99.90;;;;;;5036730;28;20045;-65
2024/01/13 00:03:31;;;;;;;1.15;1.00;;;3.00;99.90;;;;;;5036737;28;20042;-65
2024/01/13 00:05:57;;;;;;;1.13;0.85;;;3.00;99.90;;;;;;5036700;28;20485;-65
2024/01/13 00:08:23;;;;;;;0.80;0.80;;;3.30;99.90;;;;;;5036326;28;20047;-65
2024/01/13 00:10:48;;;;;;;1.38;0.93;;;3.00;99.90;;;;;;5036544;28;20071;-65
2024/01/13 00:13:15;;;;;;;2.53;1.17;;;3.40;99.90;;;;;;5002289;28;20396;-63
2024/01/13 00:15:40;;;;;;;0.80;0.80;;;2.80;99.90;;;;;;5036197;28;20037;-63
2024/01/13 00:18:06;;;;;;;1.95;1.27;;;2.90;99.90;;;;;;5036510;28;20469;-63
2024/01/13 00:20:32;;;;;;;1.60;1.02;;;2.90;99.90;;;;;;5036428;28;20048;-63
2024/01/13 00:22:58;;;;;;;1.10;1.00;;;2.90;99.90;;;;;;5036372;28;20489;-63
2024/01/13 00:25:23;;;;;;;1.40;1.20;;;2.70;99.90;;;;;;5036326;28;20041;-63
2024/01/13 00:27:55;;;;;;;2.00;0.93;;;3.20;99.90;;;;;;5035752;28;20465;-64
2024/01/13 00:30:21;;;;;;;0.82;0.82;;;2.90;99.90;;;;;;5036248;28;20481;-66
2024/01/13 00:32:46;;;;;;;2.63;1.40;;;3.00;99.90;;;;;;5036137;28;20037;-63
2024/01/13 00:35:12;;;;;;;1.33;1.23;;;2.90;99.90;;;;;;5035791;28;20500;-63
2024/01/13 00:37:38;;;;;;;1.10;1.00;;;2.90;99.90;;;;;;5036112;28;20120;-63
2024/01/13 00:40:04;;;;;;;1.27;1.10;;;3.10;99.90;;;;;;5018272;28;20034;-63
2024/01/13 00:42:30;;;;;;;1.05;1.00;;;2.90;99.90;;;;;;5036140;28;20052;-77
2024/01/13 00:44:55;;;;;;;1.10;1.00;;;2.90;99.90;;;;;;5018315;28;20049;-75
2024/01/13 00:47:21;;;;;;;1.17;1.08;;;2.90;99.90;;;;;;5036056;28;20057;-76
2024/01/13 00:49:47;;;;;;;1.30;1.20;;;3.00;99.90;;;;;;5017931;28;20489;-76
2024/01/13 00:52:12;;;;;;;2.53;1.02;;;3.10;99.90;;;;;;5017029;28;20038;-76
2024/01/13 00:54:40;;;;;;;1.02;0.88;;;3.30;99.90;;;;;;5035627;28;20091;-76
2024/01/13 00:57:06;;;;;;;0.90;0.90;;;3.00;99.90;;;;;;5035575;28;20466;-76
2024/01/13 00:59:31;;;;;;;1.17;1.02;;;3.00;99.90;;;;;;5035514;28;20117;-76
2024/01/13 01:01:57;;;;;;;0.98;0.98;;;2.90;99.90;;;;;;5017764;28;20044;-75
2024/01/13 01:04:23;;;;;;;1.10;1.00;;;3.00;99.90;;;;;;5035654;28;20481;-76
2024/01/13 01:06:49;;;;;;;0.95;0.95;;;3.10;99.90;;;;;;5035592;28;20472;-76
2024/01/13 01:09:14;;;;;;;1.52;1.20;;;3.00;99.90;;;;;;5035365;28;20121;-77
2024/01/13 01:11:41;;;;;;;1.17;1.10;;;3.10;99.90;;;;;;5017489;28;20046;-77
2024/01/13 01:14:07;;;;;;;1.33;1.23;;;3.10;99.90;;;;;;5035632;28;20037;-76
2024/01/13 01:16:33;;;;;;;1.33;1.20;;;3.00;99.90;;;;;;5035335;28;20120;-77
2024/01/13 01:18:59;;;;;;;1.50;1.27;;;3.10;99.90;;;;;;5035364;28;20267;-77
2024/01/13 01:21:25;;;;;;;0.85;0.85;;;3.10;99.90;;;;;;5017373;28;20060;-76
2024/01/13 01:23:50;;;;;;;1.65;1.20;;;3.10;99.90;;;;;;5035488;28;20504;-63
2024/01/13 01:26:16;;;;;;;1.05;0.98;;;3.70;99.90;;;;;;5035123;28;20392;-63
2024/01/13 01:28:42;;;;;;;1.58;1.15;;;3.10;99.90;;;;;;5034528;28;20062;-63
2024/01/13 01:31:14;;;;;;;3.25;1.77;;;3.10;99.90;;;;;;5016984;28;20049;-63
2024/01/13 01:33:39;;;;;;;1.35;1.08;;;3.10;99.90;;;;;;5035130;28;20034;-63
2024/01/13 01:36:05;;;;;;;1.83;1.30;;;3.10;99.90;;;;;;5035013;28;20056;-63
2024/01/13 01:38:31;;;;;;;1.40;1.30;;;3.10;99.90;;;;;;5034943;28;20048;-64
2024/01/13 01:40:56;;;;;;;1.50;0.80;;;3.20;99.90;;;;;;5034891;28;20124;-63
2024/01/13 01:43:22;;;;;;;1.20;1.10;;;2.90;99.90;;;;;;5034945;28;20124;-63
2024/01/13 01:45:50;;;;;;;1.33;1.05;;;3.10;99.90;;;;;;5034872;28;20048;-63
2024/01/13 01:48:17;;;;;;;1.17;1.08;;;3.10;99.90;;;;;;5034840;28;20539;-64
2024/01/13 01:50:42;;;;;;;1.27;1.10;;;3.10;99.90;;;;;;5034687;28;20460;-65
2024/01/13 01:53:11;;;;;;;1.08;0.98;;;2.80;99.90;;;;;;5034749;28;20076;-60
2024/01/13 01:55:37;;;;;;;1.23;1.08;;;3.10;99.90;;;;;;5034647;28;20038;-61
2024/01/13 01:58:04;;;;;;;0.80;0.80;;;3.20;99.90;;;;;;5034606;28;20091;-61
2024/01/13 02:00:32;;;;;;;0.85;0.85;;;3.00;99.90;;;;;;5016842;28;20053;-60
2024/01/13 02:02:58;;;;;;;0.90;0.80;;;2.80;99.90;;;;;;5034256;28;20469;-61
2024/01/13 02:05:23;;;;;;;1.40;1.02;;;3.10;99.90;;;;;;5034190;28;20034;-61
2024/01/13 02:07:50;;;;;;;0.70;0.70;;;3.60;99.90;;;;;;5034416;28;20077;-60
2024/01/13 02:10:20;;;;;;;0.80;0.80;;;3.60;99.90;;;;;;5034344;28;20087;-60
2024/01/13 02:12:46;;;;;;;0.70;0.70;;;3.10;99.90;;;;;;5016332;28;20041;-61
2024/01/13 02:15:12;;;;;;;1.15;0.85;;;3.10;99.90;;;;;;5034007;28;20029;-61
2024/01/13 02:17:37;;;;;;;0.93;0.80;;;3.20;99.90;;;;;;5016555;28;20436;-60
2024/01/13 02:20:06;;;;;;;0.70;0.70;;;3.20;99.90;;;;;;5033882;28;20033;-60
2024/01/13 02:22:32;;;;;;;0.60;0.60;;;3.10;99.90;;;;;;5016012;28;20076;-60
2024/01/13 02:25:02;;;;;;;0.65;0.65;;;3.20;99.90;;;;;;5016413;28;20060;-61
2024/01/13 02:27:41;;;;;;;0.60;0.60;;;3.10;99.90;;;;;;5033446;28;20045;-60
2024/01/13 02:30:14;;;;;;;0.80;0.80;;;3.10;99.90;;;;;;5015998;28;20052;-61
2024/01/13 02:32:39;;;;;;;1.00;0.93;;;3.10;99.90;;;;;;5033898;28;20046;-60
2024/01/13 02:35:06;;;;;;;0.80;0.80;;;3.10;99.90;;;;;;5016089;28;20088;-60
2024/01/13 02:37:31;;;;;;;1.15;0.80;;;3.20;99.90;;;;;;5015907;28;20045;-60
2024/01/13 02:39:57;;;;;;;0.70;0.70;;;3.10;99.90;;;;;;5015939;28;20504;-61
2024/01/13 02:42:22;;;;;;;1.00;0.90;;;3.20;99.90;;;;;;5033837;28;20477;-65
2024/01/13 02:44:48;;;;;;;0.98;0.95;;;3.20;99.90;;;;;;5033579;28;20045;-60
2024/01/13 02:47:14;;;;;;;3.55;0.98;;;3.10;99.90;;;;;;5015821;28;20120;-60
2024/01/13 02:49:39;;;;;;;0.80;0.80;;;3.10;99.90;;;;;;5015811;28;20447;-60
2024/01/13 02:52:05;;;;;;;1.17;1.00;;;3.10;99.90;;;;;;5015762;28;20071;-60
2024/01/13 02:54:31;;;;;;;0.85;0.85;;;3.10;99.90;;;;;;5015730;28;20045;-60
2024/01/13 02:56:58;;;;;;;1.27;1.17;;;3.00;99.90;;;;;;5033615;28;20405;-61
2024/01/13 02:59:24;;;;;;;1.05;0.90;;;3.40;99.90;;;;;;5015567;28;20037;-61
2024/01/13 03:01:49;;;;;;;0.80;0.80;;;3.10;99.90;;;;;;5033292;28;20129;-60
2024/01/13 03:04:15;;;;;;;3.30;1.20;;;3.00;99.90;;;;;;5033445;28;20033;-64
2024/01/13 03:06:40;;;;;;;1.13;0.80;;;3.10;99.90;;;;;;5033243;28;20041;-65
2024/01/13 03:09:06;;;;;;;1.13;0.80;;;3.10;99.90;;;;;;5015455;28;20116;-65
2024/01/13 03:11:32;;;;;;;1.55;1.10;;;3.00;99.90;;;;;;5033352;28;20095;-65
2024/01/13 03:13:58;;;;;;;1.10;0.90;;;3.30;99.90;;;;;;5033457;28;20524;-66
2024/01/13 03:16:24;;;;;;;0.80;0.80;;;3.00;99.90;;;;;;5020225;28;20041;-65
2024/01/13 03:18:49;;;;;;;1.02;0.95;;;3.00;99.90;;;;;;5039965;28;20531;-66
2024/01/13 03:21:15;;;;;;;0.82;0.82;;;3.10;99.90;;;;;;5022186;28;20417;-65
2024/01/13 03:23:42;;;;;;;0.80;0.80;;;3.10;99.90;;;;;;5039689;28;20090;-65
2024/01/13 03:26:08;;;;;;;0.95;0.82;;;3.20;99.90;;;;;;5039911;28;20041;-65
2024/01/13 03:28:40;;;;;;;1.25;0.93;;;3.10;99.90;;;;;;5039315;28;20519;-65
2024/01/13 03:31:06;;;;;;;0.75;0.73;;;3.10;99.90;;;;;;5039873;28;20126;-65
2024/01/13 03:33:32;;;;;;;1.23;1.13;;;3.10;99.90;;;;;;5022105;28;20076;-65
2024/01/13 03:35:58;;;;;;;0.70;0.70;;;3.10;99.90;;;;;;5021915;28;20049;-65
2024/01/13 03:38:25;;;;;;;0.80;0.80;;;3.20;99.90;;;;;;5039832;28;20447;-65
2024/01/13 03:40:50;;;;;;;1.23;0.80;;;3.10;99.90;;;;;;5039735;28;20037;-64
2024/01/13 03:43:16;;;;;;;1.27;1.02;;;3.40;99.90;;;;;;5039519;28;20041;-65
2024/01/13 03:45:41;;;;;;;0.90;0.85;;;3.10;99.90;;;;;;5039927;28;20044;-65
2024/01/13 03:48:07;;;;;;;1.10;1.10;;;3.10;99.90;;;;;;5021719;28;20140;-64
2024/01/13 03:50:33;;;;;;;1.40;0.98;;;3.10;99.90;;;;;;5039747;28;20444;-65
2024/01/13 03:52:58;;;;;;;0.85;0.80;;;2.90;99.90;;;;;;5039674;28;20077;-65
2024/01/13 03:55:24;;;;;;;1.05;0.90;;;3.30;99.90;;;;;;5021625;28;20038;-66
2024/01/13 03:57:50;;;;;;;1.38;1.00;;;2.80;99.90;;;;;;5039645;28;20460;-65
2024/01/13 04:00:16;;;;;;;0.93;0.90;;;3.10;99.90;;;;;;5039328;28;20036;-65
2024/01/13 04:02:41;;;;;;;2.38;1.10;;;3.10;99.90;;;;;;5039622;28;20091;-66
2024/01/13 04:05:07;;;;;;;1.27;0.93;;;3.10;99.90;;;;;;5039371;28;20073;-65
2024/01/13 04:07:33;;;;;;;1.52;1.10;;;3.10;99.90;;;;;;5039500;28;20491;-65
2024/01/13 04:09:58;;;;;;;0.65;0.65;;;3.40;99.90;;;;;;5039577;28;20033;-65
2024/01/13 04:12:24;;;;;;;0.82;0.80;;;3.60;99.90;;;;;;5039501;28;20120;-65
2024/01/13 04:14:49;;;;;;;0.68;0.68;;;3.30;99.90;;;;;;5039547;28;20045;-77
2024/01/13 04:17:15;;;;;;;0.77;0.77;;;3.50;99.90;;;;;;5039679;28;20043;-77
2024/01/13 04:19:41;;;;;;;0.88;0.80;;;3.40;99.90;;;;;;5039222;28;20033;-76
2024/01/13 04:22:07;;;;;;;0.70;0.70;;;4.00;99.90;;;;;;5021544;28;20041;-77
2024/01/13 04:24:32;;;;;;;0.85;0.85;;;3.50;99.90;;;;;;5021472;28;20489;-76
2024/01/13 04:27:04;;;;;;;1.02;0.90;;;3.60;99.90;;;;;;5037121;28;20536;-74
2024/01/13 04:29:43;;;;;;;1.02;0.90;;;3.50;99.90;;;;;;4998969;28;20521;-77
2024/01/13 04:32:09;;;;;;;0.75;0.75;;;3.30;99.90;;;;;;5016437;28;20125;-77
2024/01/13 04:34:35;;;;;;;0.75;0.75;;;3.50;99.90;;;;;;4998748;28;20100;-77
2024/01/13 04:37:01;;;;;;;1.05;0.82;;;3.50;99.90;;;;;;4998801;28;20089;-76
2024/01/13 04:39:27;;;;;;;0.85;0.70;;;3.60;99.90;;;;;;4998436;28;20046;-76
2024/01/13 04:41:53;;;;;;;0.77;0.77;;;3.70;99.90;;;;;;4998585;28;20545;-76
2024/01/13 04:44:18;;;;;;;0.88;0.88;;;3.30;99.90;;;;;;5016148;28;20042;-77
2024/01/13 04:46:44;;;;;;;0.70;0.70;;;3.80;99.90;;;;;;4998579;28;20038;-76
2024/01/13 04:49:10;;;;;;;1.20;1.10;;;3.40;99.90;;;;;;4998402;28;20057;-76
2024/01/13 04:51:35;;;;;;;0.85;0.85;;;3.40;99.90;;;;;;4998414;28;20104;-77
2024/01/13 04:54:02;;;;;;;0.85;0.85;;;3.60;99.90;;;;;;4998446;28;20088;-62
2024/01/13 04:56:28;;;;;;;1.25;0.98;;;3.90;99.90;;;;;;4998242;28;20045;-62
2024/01/13 04:58:54;;;;;;;1.35;1.00;;;;;;;;;;5015921;28;20508;-63
2024/01/13 05:01:20;;;;;;;0.77;0.77;;;3.10;99.90;;;;;;5015907;28;20045;-62
2024/01/13 05:03:45;;;;;;;0.77;0.77;;;3.80;99.90;;;;;;4998028;28;20045;-62
2024/01/13 05:06:11;;;;;;;1.08;0.98;;;3.10;99.90;;;;;;5015783;28;20050;-62
2024/01/13 05:08:36;;;;;;;0.98;0.80;;;3.10;99.90;;;;;;5015760;28;20393;-63
2024/01/13 05:11:02;;;;;;;0.60;0.60;;;3.20;99.90;;;;;;5015632;28;20045;-62
2024/01/13 05:13:28;;;;;;;1.00;0.90;;;3.20;99.90;;;;;;4997886;28;20126;-62
2024/01/13 05:15:53;;;;;;;0.85;0.80;;;3.40;99.90;;;;;;5015308;28;20033;-62
2024/01/13 05:18:19;;;;;;;1.02;0.85;;;3.80;99.90;;;;;;5015521;28;20037;-63
2024/01/13 05:20:45;;;;;;;1.13;0.90;;;3.20;99.90;;;;;;5015294;28;20096;-63
2024/01/13 05:23:10;;;;;;;0.95;0.88;;;3.20;99.90;;;;;;4997697;28;20044;-64
2024/01/13 05:25:36;;;;;;;0.80;0.68;;;3.70;99.90;;;;;;4997587;28;20527;-59
2024/01/13 05:28:09;;;;;;;1.13;0.98;;;3.20;99.90;;;;;;5022723;28;20508;-60
2024/01/13 05:30:35;;;;;;;0.80;0.80;;;3.20;99.90;;;;;;5034745;28;20041;-59
2024/01/13 05:33:01;;;;;;;1.35;1.00;;;3.20;99.90;;;;;;5035045;28;20045;-59
2024/01/13 05:35:27;;;;;;;1.05;0.98;;;3.20;99.90;;;;;;5034713;28;20038;-59
2024/01/13 05:37:53;;;;;;;0.80;0.80;;;3.20;99.90;;;;;;5034788;28;20060;-60
2024/01/13 05:40:22;;;;;;;0.60;0.60;;;3.20;99.90;;;;;;5034793;28;20050;-59
2024/01/13 05:42:47;;;;;;;0.63;0.63;;;3.20;99.90;;;;;;5034609;28;20033;-59
2024/01/13 05:45:13;;;;;;;1.02;0.93;;;3.20;99.90;;;;;;5034626;28;20095;-60
2024/01/13 05:47:38;;;;;;;1.15;0.93;;;3.20;99.90;;;;;;5034836;28;20108;-59
2024/01/13 05:50:05;;;;;;;1.13;0.80;;;3.20;99.90;;;;;;5034570;28;20365;-59
2024/01/13 05:52:31;;;;;;;0.77;0.75;;;3.20;99.90;;;;;;5016696;28;20041;-60
2024/01/13 05:54:56;;;;;;;0.90;0.80;;;3.10;99.90;;;;;;5034646;28;20091;-60
2024/01/13 05:57:22;;;;;;;0.50;0.50;;;3.10;99.90;;;;;;5016949;28;20083;-60
2024/01/13 05:59:48;;;;;;;0.68;0.63;;;3.20;99.90;;;;;;5034642;28;20033;-59
2024/01/13 06:02:14;;;;;;;1.13;0.80;;;3.10;99.90;;;;;;5034196;28;20037;-60
2024/01/13 06:04:40;;;;;;;2.25;1.10;;;3.10;99.90;;;;;;5016601;28;20066;-65
2024/01/13 06:07:06;;;;;;;0.70;0.70;;;3.20;99.90;;;;;;5034400;28;20041;-60
2024/01/13 06:09:32;;;;;;;0.85;0.80;;;3.10;99.90;;;;;;5016719;28;20080;-60
2024/01/13 06:11:57;;;;;;;0.60;0.60;;;3.10;99.90;;;;;;5016301;28;20084;-60
2024/01/13 06:14:23;;;;;;;1.02;0.80;;;3.10;99.90;;;;;;5016288;28;20095;-60
2024/01/13 06:16:49;;;;;;;1.10;0.90;;;3.10;99.90;;;;;;5016389;28;20061;-59
2024/01/13 06:19:14;;;;;;;0.80;0.80;;;3.10;99.90;;;;;;5033982;28;20091;-59
2024/01/13 06:21:42;;;;;;;0.70;0.70;;;3.80;99.90;;;;;;5016495;28;20500;-60
2024/01/13 06:24:11;;;;;;;1.33;0.85;;;3.50;99.90;;;;;;5034084;28;20041;-60
2024/01/13 06:26:39;;;;;;;0.63;0.63;;;3.20;99.90;;;;;;5016193;28;20045;-60
2024/01/13 06:29:05;;;;;;;0.60;0.60;;;3.10;99.90;;;;;;5033405;28;20072;-61
2024/01/13 06:31:37;;;;;;;0.68;0.68;;;3.10;99.90;;;;;;5033865;28;20056;-61
2024/01/13 06:34:03;;;;;;;0.60;0.60;;;3.90;99.90;;;;;;5034093;28;20393;-77
2024/01/13 06:36:29;;;;;;;0.80;0.80;;;3.10;99.90;;;;;;5036760;28;20033;-77
2024/01/13 06:38:54;;;;;;;1.02;0.77;;;3.10;99.90;;;;;;5016576;28;20486;-75
2024/01/13 06:41:20;;;;;;;0.90;0.68;;;3.80;99.90;;;;;;5016126;28;20041;-76
2024/01/13 06:43:46;;;;;;;0.68;0.68;;;3.00;99.90;;;;;;5018357;28;20098;-75
2024/01/13 06:46:12;;;;;;;0.60;0.60;;;3.10;99.90;;;;;;5033557;28;20048;-65
2024/01/13 06:48:37;;;;;;;0.80;0.80;;;3.10;99.90;;;;;;5033752;28;20124;-65
2024/01/13 06:51:03;;;;;;;1.13;0.80;;;3.10;99.90;;;;;;5033012;28;20041;-63
2024/01/13 06:53:29;;;;;;;0.60;0.60;;;3.10;99.90;;;;;;5015730;28;20405;-64
2024/01/13 06:55:55;;;;;;;0.75;0.70;;;3.10;99.90;;;;;;5033381;28;20094;-64
2024/01/13 06:58:20;;;;;;;0.47;0.47;;;3.10;99.90;;;;;;5033575;28;20041;-64
2024/01/13 07:00:46;;;;;;;0.70;0.70;;;3.80;99.90;;;;;;5033390;28;20037;-64
2024/01/13 07:03:12;;;;;;;0.70;0.70;;;3.10;99.90;;;;;;5033261;28;20045;-64
2024/01/13 07:05:37;;;;;;;1.30;0.60;;;3.10;99.90;;;;;;5033239;28;20079;-64
2024/01/13 07:08:05;;;;;;;0.70;0.70;;;3.90;99.90;;;;;;5033506;28;20547;-64
2024/01/13 07:10:31;;;;;;;0.63;0.63;;;3.00;99.90;;;;;;5033544;28;20452;-64
2024/01/13 07:12:57;;;;;;;0.60;0.60;;;3.10;99.90;;;;;;5033384;28;20117;-64
2024/01/13 07:15:23;;;;;;;0.70;0.70;;;3.10;99.90;;;;;;5015950;28;20481;-64
2024/01/13 07:17:48;;;;;;;0.80;0.80;;;3.10;99.90;;;;;;5033189;28;20040;-64
2024/01/13 07:20:14;;;;;;;0.57;0.57;;;3.60;99.90;;;;;;5033385;28;20041;-64
2024/01/13 07:22:40;;;;;;;0.60;0.60;;;3.70;99.90;;;;;;4999065;28;20493;-64
2024/01/13 07:25:07;;;;;;;0.63;0.63;;;3.30;99.90;;;;;;5032986;28;20037;-66
2024/01/13 07:27:46;;;;;;;0.60;0.60;;;3.10;99.90;;;;;;5015007;28;20049;-64
2024/01/13 07:30:18;;;;;;;1.02;1.02;;;3.10;99.90;;;;;;5032867;28;20045;-64
2024/01/13 07:32:45;;;;;;;0.60;0.60;;;3.20;99.90;;;;;;5015184;28;20124;-64
2024/01/13 07:35:11;;;;;;;0.60;0.60;;;3.20;99.90;;;;;;5015312;28;20405;-64
2024/01/13 07:37:36;;;;;;;0.82;0.75;;;3.20;99.90;;;;;;5033249;28;20037;-64
2024/01/13 07:40:02;;;;;;;0.50;0.50;;;3.20;99.90;;;;;;5033147;28;20485;-65
2024/01/13 07:42:28;;;;;;;0.73;0.68;;;3.20;99.90;;;;;;5033186;28;20049;-65
2024/01/13 07:44:54;;;;;;;0.60;0.60;;;3.20;99.90;;;;;;5032986;28;20041;-65
2024/01/13 07:47:19;;;;;;;0.60;0.60;;;3.20;99.90;;;;;;5033016;28;20502;-64
2024/01/13 07:49:45;;;;;;;0.60;0.60;;;3.20;99.90;;;;;;5033106;28;20091;-65
2024/01/13 07:52:11;;;;;;;0.60;0.60;;;3.20;99.90;;;;;;5032808;28;20034;-64
2024/01/13 07:54:36;;;;;;;0.60;0.60;;;3.20;99.90;;;;;;5032960;28;20041;-64
2024/01/13 07:57:02;;;;;;;0.60;0.60;;;3.20;99.90;;;;;;5033037;28;20087;-64
2024/01/13 07:59:28;;;;;;;0.70;0.70;;;3.20;99.90;;;;;;5033010;28;20033;-64
2024/01/13 08:01:53;;;;;;;0.60;0.60;;;3.20;99.90;;;;;;5034289;28;20481;-64
2024/01/13 08:04:20;;;;;;;0.70;0.70;;;3.30;99.90;;;;;;5018862;28;20060;-66
2024/01/13 08:06:46;;;;;;;0.80;0.80;;;3.30;99.90;;;;;;5036748;28;20045;-64
2024/01/13 08:09:11;;;;;;;0.63;0.63;;;3.20;99.90;;;;;;5036362;28;20034;-64
2024/01/13 08:11:37;;;;;;;1.17;1.08;;;3.30;99.90;;;;;;5036591;28;20073;-64
2024/01/13 08:14:02;;;;;;;0.98;0.98;;;3.30;99.90;;;;;;5018561;28;20041;-66
2024/01/13 08:16:29;;;;;;;1.30;1.08;;;3.30;99.90;;;;;;5018456;28;20033;-64
2024/01/13 08:18:55;;;;;;;1.35;1.23;;;3.30;99.90;;;;;;5036158;28;20103;-65
2024/01/13 08:21:21;;;;;;;1.35;1.25;;;3.30;99.90;;;;;;5018724;28;20077;-65
2024/01/13 08:23:46;;;;;;;1.33;1.23;;;3.50;99.90;;;;;;5036148;28;20049;-65
2024/01/13 08:26:12;;;;;;;1.70;1.60;;;3.40;99.90;;;;;;5036121;28;20073;-65
2024/01/13 08:28:44;;;;;;;1.75;1.65;;;3.40;99.90;;;;;;5018041;28;20137;-66
2024/01/13 08:31:10;;;;;;;1.98;1.80;;;3.40;99.90;;;;;;5036069;28;20044;-65
2024/01/13 08:33:35;;;;;;;2.85;2.55;;;3.90;99.90;;;;;;5036205;28;20465;-64
2024/01/13 08:36:01;;;;;;;2.17;1.92;;;3.40;99.90;;;;;;5035835;28;20029;-69
2024/01/13 08:38:27;;;;;;;2.67;2.47;;;3.40;99.90;;;;;;5036076;28;20044;-63
2024/01/13 08:40:52;;;;;;;2.53;2.33;;;3.50;99.90;;;;;;5035870;28;20045;-63
2024/01/13 08:43:18;;;;;;;2.85;2.35;;;3.50;99.90;;;;;;5035780;28;20042;-63
2024/01/13 08:45:43;;;;;;;2.40;2.20;;;3.50;99.90;;;;;;5035631;28;20117;-63
2024/01/13 08:48:09;;;;;;;3.05;2.70;;;3.50;99.90;;;;;;5035904;28;20037;-63
2024/01/13 08:50:35;;;;;;;3.97;2.63;;;3.70;99.90;;;;;;5035890;28;20029;-63
2024/01/13 08:53:00;;;;;;;3.20;2.88;;;3.50;99.90;;;;;;5035462;28;20041;-63
2024/01/13 08:55:26;;;;;;;2.80;2.60;;;3.50;99.90;;;;;;5035766;28;20070;-62
2024/01/13 08:57:52;;;;;;;5.22;3.08;;;3.50;99.90;;;;;;5035565;28;20490;-64
2024/01/13 09:00:18;;;;;;;3.50;3.20;;;3.50;99.90;;;;;;5035654;28;20045;-62
2024/01/13 09:02:45;;;;;;;3.38;3.08;;;3.50;99.90;;;;;;5035466;28;20048;-63
2024/01/13 09:05:11;;;;;;;3.60;3.25;;;4.00;99.90;;;;;;5020999;28;20049;-75
2024/01/13 09:07:37;;;;;;;5.75;3.67;;;3.60;99.90;;;;;;5037222;28;20072;-75
2024/01/13 09:10:05;;;;;;;3.15;2.88;;;4.10;99.90;;;;;;5019291;28;20037;-75
2024/01/13 09:12:30;;;;;;;4.57;4.05;;;3.60;99.90;;;;;;5037124;28;20034;-76
2024/01/13 09:14:56;;;;;;;4.47;4.07;;;3.60;99.90;;;;;;5037434;28;20037;-73
2024/01/13 09:17:22;;;;;;;3.83;3.53;;;3.50;99.90;;;;;;5035884;28;20069;-74
2024/01/13 09:19:48;;;;;;;4.45;4.05;;;3.50;99.90;;;;;;5035816;28;20041;-75
2024/01/13 09:22:14;;;;;;;4.88;4.47;;;3.90;99.90;;;;;;5017426;28;20052;-74
2024/01/13 09:24:42;;;;;;;5.35;4.85;;;3.50;99.90;;;;;;5017450;28;20072;-74
2024/01/13 09:27:07;;;;;;;5.18;4.68;;;3.60;99.90;;;;;;5017316;28;20045;-74
2024/01/13 09:29:40;;;;;;;5.78;5.25;;;3.60;99.90;;;;;;5034802;28;20060;-74
2024/01/13 09:32:05;;;;;;;6.00;5.47;;;3.60;99.90;;;;;;5017269;28;20049;-74
2024/01/13 09:34:31;;;;;;;5.90;5.30;;;3.60;99.90;;;;;;5035036;28;20485;-66
2024/01/13 09:36:57;;;;;;;6.28;5.68;;;3.60;99.90;;;;;;5034722;28;20029;-65
2024/01/13 09:39:22;;;;;;;6.32;5.82;;;3.60;99.90;;;;;;5034996;28;20052;-65
2024/01/13 09:41:48;;;;;;;7.53;6.82;;;4.00;99.90;;;;;;5016912;28;20382;-65
2024/01/13 09:44:28;;;;;;;6.90;6.30;;;3.70;99.90;;;;;;5034525;28;20140;-65
2024/01/13 09:46:56;;;;;;;6.70;6.10;;;3.70;99.90;;;;;;5034413;28;20041;-65
2024/01/13 09:49:30;;;;;;;7.20;6.60;;;3.70;99.90;;;;;;5034706;28;20037;-65
2024/01/13 09:51:57;;;;;;;7.30;6.70;;;3.70;99.90;;;;;;5034673;28;20152;-65
2024/01/13 09:54:30;;;;;;;7.85;7.20;;;3.70;99.90;;;;;;5034557;28;20507;-64
2024/01/13 09:56:57;;;;;;;7.53;6.93;;;3.70;99.90;;;;;;5016893;28;20033;-64
2024/01/13 09:59:25;;;;;;;7.70;7.03;;;3.90;99.90;;;;;;5016903;28;20041;-65
2024/01/13 10:01:52;;;;;;;8.30;7.60;;;3.70;99.90;;;;;;5034523;28;20053;-65
2024/01/13 10:04:18;;;;;;;7.32;6.65;;;3.60;99.90;;;;;;5034214;28;20402;-65
2024/01/13 10:06:45;;;;;;;7.97;7.28;;;3.70;99.90;;;;;;5034410;28;20033;-65
2024/01/13 10:09:11;;;;;;;8.45;7.75;;;3.70;99.90;;;;;;5033968;28;20049;-65
2024/01/13 10:11:37;;;;;;;7.10;6.50;;;3.70;99.90;;;;;;5033893;28;20052;-65
2024/01/13 10:14:13;;;;;;;8.10;7.40;;;3.80;99.90;;;;;;5016501;28;20045;-64
2024/01/13 10:16:39;;;;;;;8.43;7.63;;;3.70;99.90;;;;;;5034251;28;20041;-64
2024/01/13 10:19:06;;;;;;;7.97;7.28;;;3.80;99.90;;;;;;5016495;28;20049;-67
2024/01/13 10:21:33;;;;;;;8.32;7.57;;;3.80;99.90;;;;;;5016612;28;20049;-66
2024/01/13 10:24:00;;;;;;;7.95;7.32;;;3.80;99.90;;;;;;5016055;28;20080;-65
2024/01/13 10:26:31;;;;;;;7.80;7.10;;;3.80;99.90;;;;;;5033123;28;20103;-66
2024/01/13 10:28:57;;;;;;;8.32;7.63;;;3.80;99.90;;;;;;5033520;28;20085;-65
2024/01/13 10:31:37;;;;;;;8.50;7.80;;;3.80;99.90;;;;;;5033957;28;20048;-65
2024/01/13 10:34:08;;;;;;;8.27;7.57;;;3.80;99.90;;;;;;5033937;28;20112;-67
2024/01/13 10:36:33;;;;;;;8.00;7.30;;;3.80;99.90;;;;;;5033987;28;20045;-65
2024/01/13 10:39:00;;;;;;;8.82;7.97;;;4.10;99.90;;;;;;5033801;28;20049;-64
2024/01/13 10:41:29;;;;;;;7.97;7.18;;;4.00;99.90;;;;;;5033926;28;20048;-65
2024/01/13 10:43:56;;;;;;;7.80;7.15;;;4.50;99.90;;;;;;5033706;28;20445;-64
2024/01/13 10:46:26;;;;;;;7.40;6.80;;;3.80;99.90;;;;;;5033787;28;20045;-65
2024/01/13 10:49:00;;;;;;;8.02;7.32;;;3.80;99.90;;;;;;5033455;28;20048;-65
2024/01/13 10:51:37;;;;;;;7.15;6.55;;;3.80;99.90;;;;;;5015654;28;20037;-64
2024/01/13 10:54:03;;;;;;;9.98;7.40;;;3.80;99.90;;;;;;5015692;28;20109;-64
2024/01/13 10:56:30;;;;;;;7.55;6.90;;;3.80;99.90;;;;;;5033647;28;20038;-64
2024/01/13 10:58:59;;;;;;;8.48;7.68;;;4.00;99.90;;;;;;5033648;28;20080;-65
2024/01/13 11:01:26;;;;;;;8.77;8.00;;;3.80;99.90;;;;;;5015623;28;20038;-64
2024/01/13 11:03:53;;;;;;;6.97;6.38;;;4.40;99.90;;;;;;5015625;28;20124;-64
2024/01/13 11:06:21;;;;;;;7.95;6.85;;;4.10;99.90;;;;;;5033208;28;20551;-64
2024/01/13 11:08:47;;;;;;;8.45;7.63;;;3.90;99.90;;;;;;5033150;28;20048;-66
2024/01/13 11:11:19;;;;;;;8.38;7.57;;;4.60;99.90;;;;;;5033328;28;20034;-65
2024/01/13 11:13:50;;;;;;;7.53;6.88;;;4.10;99.90;;;;;;5015488;28;20397;-65
2024/01/13 11:16:19;;;;;;;6.88;6.22;;;3.90;99.90;;;;;;5033491;28;20091;-64
2024/01/13 11:18:51;;;;;;;8.32;7.03;;;3.90;99.90;;;;;;5033390;28;20041;-66
2024/01/13 11:21:17;;;;;;;6.78;6.18;;;3.90;99.90;;;;;;5033181;28;20033;-64
2024/01/13 11:23:56;;;;;;;6.97;6.38;;;4.20;99.90;;;;;;5033351;28;20048;-64
2024/01/13 11:26:43;;;;;;;6.25;5.75;;;3.90;99.90;;;;;;5033422;28;20038;-64
2024/01/13 11:29:24;;;;;;;6.05;5.57;;;3.90;99.90;;;;;;5032530;28;20049;-64
2024/01/13 11:31:59;;;;;;;6.03;5.40;;;4.60;99.90;;;;;;5033199;28;20417;-65
2024/01/13 11:34:27;;;;;;;6.47;5.93;;;4.00;99.90;;;;;;5015576;28;20041;-63
2024/01/13 11:36:57;;;;;;;5.85;5.35;;;4.00;99.90;;;;;;5034469;28;20116;-64
2024/01/13 11:39:23;;;;;;;6.07;5.20;;;4.00;99.90;;;;;;5037216;28;20033;-63
2024/01/13 11:41:52;;;;;;;6.07;5.43;;;4.00;99.90;;;;;;5036929;28;20493;-64
2024/01/13 11:44:22;;;;;;;6.13;5.47;;;4.00;99.90;;;;;;5037183;28;20129;-63
2024/01/13 11:46:59;;;;;;;6.13;5.57;;;4.00;99.90;;;;;;5037178;28;20045;-63
2024/01/13 11:49:35;;;;;;;6.10;5.60;;;4.00;99.90;;;;;;5019064;28;20120;-64
2024/01/13 11:52:06;;;;;;;6.20;5.70;;;4.00;99.90;;;;;;5036611;28;20042;-64
2024/01/13 11:54:34;;;;;;;6.85;6.20;;;4.40;99.90;;;;;;5036985;28;20408;-64
2024/01/13 11:57:04;;;;;;;6.18;5.68;;;4.10;99.90;;;;;;5036918;28;20044;-64
2024/01/13 11:59:30;;;;;;;5.88;5.38;;;4.00;99.90;;;;;;5036854;28;20045;-64
2024/01/13 12:01:56;;;;;;;5.93;5.43;;;4.10;99.90;;;;;;5018842;28;20370;-66
2024/01/13 12:04:25;;;;;;;5.93;5.43;;;4.10;99.90;;;;;;5036633;28;20045;-63
2024/01/13 12:06:53;;;;;;;6.38;5.55;;;4.10;99.90;;;;;;5036436;28;20098;-64
2024/01/13 12:09:24;;;;;;;5.57;5.18;;;4.10;99.90;;;;;;5036728;28;20048;-64
2024/01/13 12:11:54;;;;;;;6.32;5.72;;;4.10;99.90;;;;;;5036414;28;20080;-63
2024/01/13 12:14:32;;;;;;;5.50;5.07;;;4.10;99.90;;;;;;5036609;28;20033;-65
2024/01/13 12:17:00;;;;;;;5.88;5.40;;;4.10;99.90;;;;;;5018746;28;20038;-64
2024/01/13 12:19:36;;;;;;;6.28;5.68;;;4.10;99.90;;;;;;5036568;28;20099;-64
2024/01/13 12:22:03;;;;;;;5.43;4.93;;;4.10;99.90;;;;;;5036451;28;20557;-64
2024/01/13 12:24:30;;;;;;;5.68;5.07;;;4.10;99.90;;;;;;5036441;28;20048;-64
2024/01/13 12:26:57;;;;;;;5.47;5.00;;;4.10;99.90;;;;;;5036032;28;20076;-63
2024/01/13 12:29:29;;;;;;;5.10;4.70;;;4.10;99.90;;;;;;5035559;28;20058;-64
2024/01/13 12:32:09;;;;;;;4.85;4.28;;;4.10;99.90;;;;;;5036176;28;20401;-64
2024/01/13 12:34:35;;;;;;;5.00;4.53;;;4.10;99.90;;;;;;5018357;28;20050;-69
2024/01/13 12:37:03;;;;;;;5.03;4.63;;;4.10;99.90;;;;;;5035942;28;20037;-67
2024/01/13 12:39:29;;;;;;;4.40;3.88;;;4.00;99.90;;;;;;5035895;28;20047;-66
2024/01/13 12:41:55;;;;;;;4.75;4.35;;;4.70;99.90;;;;;;5036112;28;20475;-65
2024/01/13 12:44:27;;;;;;;5.07;4.63;;;4.10;99.90;;;;;;5017992;28;20141;-66
2024/01/13 12:46:56;;;;;;;4.40;4.10;;;4.00;99.90;;;;;;5035788;28;20045;-66
2024/01/13 12:49:22;;;;;;;4.05;3.75;;;4.00;99.90;;;;;;5034611;28;20044;-66
2024/01/13 12:51:52;;;;;;;4.30;3.90;;;4.00;99.90;;;;;;5035848;28;20037;-67
2024/01/13 12:54:19;;;;;;;4.05;3.67;;;4.00;99.90;;;;;;5035731;28;20087;-66
2024/01/13 12:56:46;;;;;;;4.32;3.92;;;4.00;99.90;;;;;;5017877;28;20092;-66